Ana Sayfa
METAR-TAF:

METAR-TAF

Havaalanları :

Aeroflex-Andover Airport

Andover, New Jersey, Amerika Birleşik Devletleri

Enlem: 41-00-32N, Boylam: 074-44-12W, yükseklik: 177 m

Güncel hava durumu gözlemi

Rapor saat 04:54 UTC de 50 dakika önce yapıldı.
Rüzgar güney/güneybatıdan 5 kt
Sıcaklık 23°C
Nem 94%
Basınç 1014 hPa

METAR: K12N 220454Z AUTO 20005KT 23/22 A2994 RMK AO1 SLP125 T02330222 403500233

Saat: 01:44 (05:44 UTC)


TAF: eksik

4.000'den fazla havaalanı için hava durumu gözlemleri ve tahminleri (METAR ve TAF raporları).

Kullanılabilir istasyonlar harita üzerinde sarı ve kırmızı noktalarla gösterilir.

İstasyonun adını görmek için fareyi noktanın üzerinde gezdirin.

Sonrasında hava gözlem ve tahminlerini görmek için tıklayın.

Haritayı değiştirmek için: yaklaştırmak için siyah artı işaretli yeşil düğmeye ve uzaklaştırmak için de eksi işaretli düğmeye hızla tıklayın; bitişik haritalar için yeşil okları kullanın.


METAR-TAF: